Time;durP1;ratioP1;P1;durP2;ratioP2;P2;SDS_P1;SDS_P2;PMS_P1;PMS_P2;Temp;Humidity;BMP_temperature;BMP_pressure;BME280_temperature;BME280_humidity;BME280_pressure;Samples;Min_cycle;Max_cycle;Signal;HPM_P1;HPM_P2
2020/12/10 00:01:47;;;;;;;8.77;6.60;;;;;;;7.90;72.51;93819.19;5011695;28;20177;-77
2020/12/10 00:04:13;;;;;;;12.33;7.00;;;;;;;8.01;72.62;93833.44;5011429;28;20995;-76
2020/12/10 00:06:38;;;;;;;12.03;7.30;;;;;;;7.86;73.01;93835.09;5011686;28;20181;-75
2020/12/10 00:09:04;;;;;;;10.27;6.27;;;;;;;7.83;73.56;93827.06;5011215;28;20591;-75
2020/12/10 00:11:29;;;;;;;9.90;5.63;;;;;;;7.98;72.60;93830.75;5011451;28;20201;-75
2020/12/10 00:13:55;;;;;;;10.17;5.33;;;;;;;7.88;72.79;93822.22;5011600;28;20191;-75
2020/12/10 00:16:20;;;;;;;8.87;5.70;;;;;;;8.15;72.20;93806.34;5011591;28;20181;-75
2020/12/10 00:18:46;;;;;;;12.37;5.83;;;;;;;8.02;72.72;93811.03;5011332;28;20165;-76
2020/12/10 00:21:11;;;;;;;8.60;5.60;;;;;;;7.87;73.69;93801.31;5011325;28;20204;-76
2020/12/10 00:23:37;;;;;;;9.20;5.70;;;;;;;8.08;72.79;93799.03;5011548;28;20177;-76
2020/12/10 00:26:02;;;;;;;7.53;5.60;;;;;;;8.12;73.08;93799.06;5011263;28;20530;-76
2020/12/10 00:28:28;;;;;;;10.03;5.93;;;;;;;8.12;72.90;93789.19;5010540;28;20205;-76
2020/12/10 00:30:53;;;;;;;9.70;5.87;;;;;;;8.10;73.31;93796.75;5011480;28;20678;-76
2020/12/10 00:33:19;;;;;;;8.50;5.43;;;;;;;7.87;74.02;93810.06;5011770;28;20574;-76
2020/12/10 00:35:44;;;;;;;6.27;4.53;;;;;;;8.06;72.74;93785.28;5011535;28;20662;-76
2020/12/10 00:38:10;;;;;;;9.87;5.90;;;;;;;7.96;73.84;93809.81;5010297;28;20173;-77
2020/12/10 00:40:35;;;;;;;7.80;5.53;;;;;;;7.83;74.49;93809.22;5011624;28;20169;-76
2020/12/10 00:43:01;;;;;;;9.40;5.20;;;;;;;8.17;73.24;93815.47;5014393;28;20208;-76
2020/12/10 00:45:27;;;;;;;6.80;5.13;;;;;;;8.06;72.87;93811.88;5015051;28;20257;-75
2020/12/10 00:47:53;;;;;;;9.03;5.40;;;;;;;8.25;72.23;93813.72;5014912;28;20251;-76
2020/12/10 00:50:18;;;;;;;7.60;5.33;;;;;;;8.04;73.86;93800.09;5014773;28;20165;-75
2020/12/10 00:52:44;;;;;;;6.30;4.90;;;;;;;7.82;74.61;93783.00;5014606;28;20204;-75
2020/12/10 00:55:09;;;;;;;6.67;5.10;;;;;;;8.05;73.58;93802.38;5014709;28;20205;-75
2020/12/10 00:57:35;;;;;;;6.87;4.60;;;;;;;7.76;74.95;93803.00;5013166;28;20661;-75
2020/12/10 01:00:00;;;;;;;5.80;4.53;;;;;;;7.87;74.87;93814.59;5014713;28;20648;-75
2020/12/10 01:02:26;;;;;;;6.60;4.90;;;;;;;8.01;73.57;93796.22;5014814;28;20200;-75
2020/12/10 01:04:51;;;;;;;7.90;5.70;;;;;;;7.89;74.10;93788.44;5014812;28;20205;-76
2020/12/10 01:07:17;;;;;;;7.13;4.63;;;;;;;7.95;73.89;93808.28;5015269;28;20620;-76
2020/12/10 01:09:42;;;;;;;8.07;5.17;;;;;;;8.19;72.33;93805.28;5013399;28;20619;-77
2020/12/10 01:12:08;;;;;;;7.37;5.10;;;;;;;8.04;73.54;93805.41;5014779;28;20606;-76
2020/12/10 01:14:33;;;;;;;6.77;4.77;;;;;;;8.19;72.79;93796.50;5014145;28;20196;-77
2020/12/10 01:16:59;;;;;;;9.60;5.30;;;;;;;8.27;72.93;93800.84;5014940;28;20256;-76
2020/12/10 01:19:25;;;;;;;9.93;6.03;;;;;;;8.30;72.17;93797.44;5014499;28;20173;-75
2020/12/10 01:21:50;;;;;;;8.43;5.83;;;;;;;8.35;72.55;93777.75;5014803;28;20173;-76
2020/12/10 01:24:16;;;;;;;9.27;6.10;;;;;;;8.25;72.79;93773.03;5014352;28;20165;-77
2020/12/10 01:26:43;;;;;;;7.30;5.30;;;;;;;7.98;73.81;93778.34;5013772;28;20257;-77
2020/12/10 01:29:08;;;;;;;8.37;5.60;;;;;;;8.18;72.96;93776.38;5014001;28;20204;-76
2020/12/10 01:31:34;;;;;;;7.27;5.63;;;;;;;8.29;72.40;93756.03;5014349;28;21014;-76
2020/12/10 01:34:00;;;;;;;10.13;6.33;;;;;;;8.11;72.68;93768.28;5014414;28;20652;-76
2020/12/10 01:36:27;;;;;;;11.60;5.80;;;;;;;8.06;73.29;93772.00;5013931;28;20660;-76
2020/12/10 01:38:53;;;;;;;10.27;6.53;;;;;;;8.20;73.12;93766.16;5014757;28;20177;-77
2020/12/10 01:41:19;;;;;;;9.70;6.33;;;;;;;7.93;74.19;93774.09;5011896;28;20606;-77
2020/12/10 01:43:44;;;;;;;9.63;5.87;;;;;;;7.53;74.82;93768.44;5013750;28;20176;-77
2020/12/10 01:46:10;;;;;;;10.07;6.70;;;;;;;7.93;73.99;93779.41;5013636;28;20181;-76
2020/12/10 01:48:36;;;;;;;12.73;6.60;;;;;;;7.62;75.03;93776.94;5014359;28;20177;-76
2020/12/10 01:51:01;;;;;;;12.40;7.90;;;;;;;7.29;75.79;93757.00;5014218;28;20188;-76
2020/12/10 01:53:27;;;;;;;12.63;6.67;;;;;;;7.45;75.09;93762.22;5014235;28;20173;-76
2020/12/10 01:55:53;;;;;;;11.30;7.03;;;;;;;7.72;74.76;93757.78;5013910;28;20201;-77
2020/12/10 01:58:18;;;;;;;12.03;7.13;;;;;;;7.91;73.92;93764.91;5012083;28;20195;-77
2020/12/10 02:00:44;;;;;;;10.83;7.17;;;;;;;7.39;75.64;93747.69;5013889;28;20173;-77
2020/12/10 02:03:09;;;;;;;9.53;6.40;;;;;;;7.86;74.33;93776.63;5013113;28;20196;-76
2020/12/10 02:05:45;;;;;;;15.43;8.50;;;;;;;8.03;73.89;93777.28;5013340;28;20232;-77
2020/12/10 02:08:10;;;;;;;12.90;7.20;;;;;;;7.86;74.36;93747.41;5013613;28;20177;-76
2020/12/10 02:10:36;;;;;;;10.63;6.67;;;;;;;7.63;74.87;93773.97;5013876;28;20560;-76
2020/12/10 02:13:02;;;;;;;11.13;6.60;;;;;;;7.45;75.21;93762.22;5012060;28;20633;-76
2020/12/10 02:15:27;;;;;;;10.57;6.87;;;;;;;7.78;74.43;93771.53;5011670;28;20813;-76
2020/12/10 02:17:54;;;;;;;10.27;6.77;;;;;;;7.62;74.77;93763.66;5013081;28;20255;-76
2020/12/10 02:20:21;;;;;;;12.07;8.00;;;;;;;7.78;74.47;93779.50;5013122;28;20192;-76
2020/12/10 02:22:51;;;;;;;12.43;7.67;;;;;;;7.16;75.90;93764.34;5013353;28;20578;-76
2020/12/10 02:25:16;;;;;;;11.43;7.23;;;;;;;7.46;75.14;93734.53;5013207;28;20599;-76
2020/12/10 02:27:43;;;;;;;14.40;8.03;;;;;;;7.42;75.85;93760.28;5013138;28;20635;-75
2020/12/10 02:30:09;;;;;;;10.73;7.20;;;;;;;7.12;76.31;93723.69;5012484;28;20181;-75
2020/12/10 02:32:34;;;;;;;13.83;7.40;;;;;;;7.28;75.82;93728.91;5013146;28;20619;-77
2020/12/10 02:35:00;;;;;;;13.80;7.07;;;;;;;7.52;75.17;93733.16;5012706;28;20224;-77
2020/12/10 02:37:25;;;;;;;12.00;8.27;;;;;;;7.60;76.28;93737.47;5013151;28;20205;-77
2020/12/10 02:39:51;;;;;;;11.37;7.40;;;;;;;7.73;74.67;93747.91;5012649;28;20551;-76
2020/12/10 02:42:16;;;;;;;12.20;7.57;;;;;;;7.74;74.78;93749.44;5013156;28;20224;-76
2020/12/10 02:44:42;;;;;;;12.10;8.17;;;;;;;7.76;74.13;93728.63;5012896;28;20226;-77
2020/12/10 02:47:07;;;;;;;12.33;7.83;;;;;;;7.80;73.90;93748.03;5012734;28;20173;-77
2020/12/10 02:49:33;;;;;;;10.67;6.70;;;;;;;7.60;74.36;93724.19;5012608;28;20555;-76
2020/12/10 02:51:58;;;;;;;11.83;7.40;;;;;;;7.85;73.68;93729.88;5012479;28;20215;-77
2020/12/10 02:54:24;;;;;;;14.77;7.53;;;;;;;7.75;74.09;93727.09;5012675;28;20233;-75
2020/12/10 02:56:49;;;;;;;11.90;7.77;;;;;;;7.99;73.59;93716.06;5012028;28;20176;-75
2020/12/10 02:59:15;;;;;;;12.83;7.87;;;;;;;7.80;74.27;93721.44;5012558;28;20602;-77
2020/12/10 03:01:40;;;;;;;13.23;8.97;;;;;;;7.83;74.42;93720.75;5012767;28;20228;-76
2020/12/10 03:04:06;;;;;;;15.43;9.33;;;;;;;7.77;74.66;93719.50;5011807;28;20165;-76
2020/12/10 03:06:31;;;;;;;16.30;8.17;;;;;;;7.98;74.16;93724.41;5012550;28;20602;-77
2020/12/10 03:08:57;;;;;;;9.90;7.03;;;;;;;8.09;73.51;93733.31;5012748;28;20180;-76
2020/12/10 03:11:23;;;;;;;16.23;8.90;;;;;;;8.09;73.11;93730.66;5012264;28;20223;-75
2020/12/10 03:13:48;;;;;;;14.40;8.17;;;;;;;7.85;74.43;93721.91;5012457;28;20690;-76
2020/12/10 03:16:14;;;;;;;12.77;7.47;;;;;;;8.00;73.58;93712.28;5012621;28;20240;-76
2020/12/10 03:18:39;;;;;;;16.13;8.87;;;;;;;8.05;73.25;93714.66;5012258;28;20662;-75
2020/12/10 03:21:05;;;;;;;13.63;8.17;;;;;;;7.95;73.94;93720.56;5011535;28;20601;-76
2020/12/10 03:23:30;;;;;;;17.53;9.77;;;;;;;8.01;74.62;93713.81;5011343;28;20645;-76
2020/12/10 03:25:56;;;;;;;12.70;8.43;;;;;;;8.02;74.34;93720.66;5011809;28;20221;-75
2020/12/10 03:28:21;;;;;;;14.10;8.27;;;;;;;7.65;75.70;93717.81;5011726;28;20248;-75
2020/12/10 03:30:47;;;;;;;13.77;7.47;;;;;;;7.50;76.15;93697.44;5011619;28;20216;-74
2020/12/10 03:33:13;;;;;;;11.60;8.07;;;;;;;7.64;75.90;93703.00;5007749;28;26003;-75
2020/12/10 03:35:38;;;;;;;13.30;8.30;;;;;;;7.76;75.28;93694.06;5001451;28;110730;-76
2020/12/10 03:38:04;;;;;;;13.23;8.30;;;;;;;7.68;75.81;93711.75;5011646;28;20629;-76
2020/12/10 03:40:29;;;;;;;15.20;9.07;;;;;;;7.51;76.32;93718.31;5011778;28;20172;-76
2020/12/10 03:42:55;;;;;;;12.83;8.80;;;;;;;7.57;76.59;93722.22;5011866;28;20200;-76
2020/12/10 03:45:20;;;;;;;16.00;9.40;;;;;;;7.79;75.40;93699.41;5011224;28;20184;-75
2020/12/10 03:47:46;;;;;;;14.83;9.30;;;;;;;7.92;74.36;93708.75;5021872;28;20319;-76
2020/12/10 03:50:11;;;;;;;11.37;8.00;;;;;;;7.96;75.30;93730.81;5031417;28;20203;-76
2020/12/10 03:52:37;;;;;;;13.50;8.43;;;;;;;8.11;74.31;93704.47;5031483;28;20571;-75
2020/12/10 03:55:02;;;;;;;16.50;9.97;;;;;;;8.16;74.65;93706.84;5030151;28;20801;-75
2020/12/10 03:57:28;;;;;;;15.80;9.80;;;;;;;8.21;74.71;93720.59;5030880;28;20754;-75
2020/12/10 03:59:53;;;;;;;17.43;9.57;;;;;;;7.96;75.24;93743.34;5031238;28;20165;-76
2020/12/10 04:02:19;;;;;;;16.13;9.80;;;;;;;8.11;74.90;93745.13;5029572;28;20299;-76
2020/12/10 04:04:44;;;;;;;15.03;8.67;;;;;;;8.34;73.49;93736.34;5031170;28;20198;-76
2020/12/10 04:07:10;;;;;;;15.70;7.93;;;;;;;8.17;73.91;93738.38;5030981;28;20314;-77
2020/12/10 04:09:36;;;;;;;14.17;8.67;;;;;;;7.94;74.59;93714.47;5031292;28;20179;-76
2020/12/10 04:12:01;;;;;;;11.67;7.57;;;;;;;8.11;73.92;93702.59;5030780;28;20709;-76
2020/12/10 04:14:27;;;;;;;11.97;8.23;;;;;;;8.01;74.77;93713.81;5029528;28;20626;-77
2020/12/10 04:16:52;;;;;;;14.23;9.10;;;;;;;7.76;75.62;93733.94;5032244;28;20180;-76
2020/12/10 04:19:18;;;;;;;14.40;8.37;;;;;;;7.63;77.08;93734.09;5033985;28;20177;-76
2020/12/10 04:21:43;;;;;;;14.17;8.60;;;;;;;7.86;75.86;93746.63;5034919;28;20561;-76
2020/12/10 04:24:09;;;;;;;12.83;8.90;;;;;;;7.79;76.08;93752.56;5035201;28;20628;-77
2020/12/10 04:26:34;;;;;;;13.27;8.60;;;;;;;7.95;75.29;93749.78;5034677;28;20303;-76
2020/12/10 04:29:00;;;;;;;16.40;8.83;;;;;;;7.97;75.35;93744.91;5034502;28;20615;-76
2020/12/10 04:31:26;;;;;;;14.10;9.33;;;;;;;7.91;75.17;93735.66;5034808;28;20179;-76
2020/12/10 04:33:51;;;;;;;13.30;9.00;;;;;;;8.18;75.00;93749.78;5034426;28;20999;-77
2020/12/10 04:36:17;;;;;;;15.07;8.63;;;;;;;8.35;74.16;93743.19;5034538;28;20243;-77
2020/12/10 04:38:42;;;;;;;15.70;9.23;;;;;;;8.37;73.51;93733.00;5034505;28;20187;-76
2020/12/10 04:41:09;;;;;;;16.37;9.73;;;;;;;8.14;74.21;93751.63;5034627;28;20172;-77
2020/12/10 04:43:34;;;;;;;13.53;8.77;;;;;;;7.75;75.65;93754.41;5034367;28;20247;-76
2020/12/10 04:46:01;;;;;;;12.43;8.30;;;;;;;7.85;75.49;93759.13;5034476;28;20586;-76
2020/12/10 04:48:30;;;;;;;16.10;9.10;;;;;;;7.90;75.88;93740.22;5034368;28;20222;-76
2020/12/10 04:50:57;;;;;;;19.20;9.53;;;;;;;8.14;75.14;93735.69;5034308;28;20613;-76
2020/12/10 04:53:26;;;;;;;15.73;9.30;;;;;;;8.00;75.40;93733.56;5034217;28;20591;-77
2020/12/10 04:55:59;;;;;;;17.83;9.30;;;;;;;8.07;75.16;93733.66;5034019;28;21007;-76
2020/12/10 04:58:24;;;;;;;15.20;8.90;;;;;;;8.07;74.79;93731.00;5033011;28;20999;-76
2020/12/10 05:01:01;;;;;;;15.47;9.10;;;;;;;8.29;74.61;93723.34;5033852;28;20689;-76
2020/12/10 05:03:27;;;;;;;13.37;8.40;;;;;;;8.16;75.19;93736.09;5034132;28;20631;-76
2020/12/10 05:05:52;;;;;;;15.43;9.13;;;;;;;8.12;75.19;93745.88;5033847;28;20590;-76
2020/12/10 05:08:30;;;;;;;14.97;9.27;;;;;;;8.16;75.20;93741.41;5033975;28;20188;-75
2020/12/10 05:10:56;;;;;;;12.20;8.97;;;;;;;8.22;74.84;93735.41;5033776;28;20634;-75
2020/12/10 05:13:21;;;;;;;14.83;9.27;;;;;;;8.47;74.73;93741.13;5033976;28;20618;-76
2020/12/10 05:15:47;;;;;;;15.07;8.50;;;;;;;8.37;74.90;93735.66;5033794;28;20247;-75
2020/12/10 05:18:13;;;;;;;12.93;8.77;;;;;;;8.16;75.55;93742.16;5033820;28;20263;-75
2020/12/10 05:20:46;;;;;;;17.87;8.83;;;;;;;8.03;75.88;93737.41;5033534;28;20218;-76
2020/12/10 05:23:13;;;;;;;13.83;8.83;;;;;;;8.34;75.08;93734.44;5032292;28;21001;-75
2020/12/10 05:25:49;;;;;;;11.23;8.23;;;;;;;7.95;75.39;93731.97;5033197;28;21171;-75
2020/12/10 05:28:16;;;;;;;15.27;9.10;;;;;;;7.91;76.29;93764.91;5033100;28;20586;-75
2020/12/10 05:30:42;;;;;;;15.07;9.97;;;;;;;8.14;75.86;93741.75;5033204;28;20590;-76
2020/12/10 05:33:12;;;;;;;15.67;8.93;;;;;;;7.98;76.87;93717.19;5033461;28;20590;-76
2020/12/10 05:35:38;;;;;;;15.93;9.63;;;;;;;7.86;78.08;93736.75;5033044;28;20637;-76
2020/12/10 05:38:08;;;;;;;12.43;8.90;;;;;;;7.89;77.32;93746.66;5033298;28;21208;-76
2020/12/10 05:40:34;;;;;;;16.00;9.93;;;;;;;8.08;76.78;93745.84;5031995;28;20164;-75
2020/12/10 05:42:59;;;;;;;14.40;9.80;;;;;;;8.23;76.16;93736.94;5033366;28;20586;-74
2020/12/10 05:45:26;;;;;;;14.57;9.30;;;;;;;8.26;75.77;93742.69;5032939;28;20175;-76
2020/12/10 05:47:55;;;;;;;16.70;9.10;;;;;;;8.33;75.12;93758.75;5033431;28;20169;-76
2020/12/10 05:50:28;;;;;;;17.17;9.77;;;;;;;8.51;75.08;93759.03;5032100;28;20645;-76
2020/12/10 05:53:03;;;;;;;15.73;9.70;;;;;;;8.15;76.35;93753.94;5033265;28;20548;-76
2020/12/10 05:55:28;;;;;;;14.87;9.10;;;;;;;8.39;75.87;93778.63;5032852;28;20695;-76
2020/12/10 05:57:54;;;;;;;16.50;9.77;;;;;;;8.47;75.35;93777.59;5033177;28;20689;-77
2020/12/10 06:00:20;;;;;;;12.53;8.77;;;;;;;8.42;75.35;93764.63;5033044;28;20207;-76
2020/12/10 06:02:45;;;;;;;16.33;9.60;;;;;;;8.35;75.97;93765.22;5032676;28;20171;-76
2020/12/10 06:05:13;;;;;;;15.27;9.43;;;;;;;8.12;76.08;93748.53;5015121;28;20200;-76
2020/12/10 06:07:38;;;;;;;13.93;9.70;;;;;;;8.29;75.83;93773.88;5031565;28;20721;-77
2020/12/10 06:10:04;;;;;;;14.93;10.37;;;;;;;8.61;74.49;93777.03;5032830;28;20567;-77
2020/12/10 06:12:29;;;;;;;17.33;9.20;;;;;;;8.80;74.03;93776.16;5031438;28;20222;-76
2020/12/10 06:14:58;;;;;;;14.80;9.97;;;;;;;8.61;74.34;93761.06;5032586;28;20274;-76
2020/12/10 06:17:24;;;;;;;16.43;9.80;;;;;;;8.50;75.08;93776.88;5032434;28;20176;-76
2020/12/10 06:19:49;;;;;;;16.80;9.13;;;;;;;8.61;74.70;93782.38;5032565;28;20645;-76
2020/12/10 06:22:25;;;;;;;15.40;8.97;;;;;;;8.53;75.07;93780.72;5032103;28;20156;-76
2020/12/10 06:24:51;;;;;;;17.23;10.83;;;;;;;8.40;74.71;93772.16;5032515;28;20550;-76
2020/12/10 06:27:22;;;;;;;14.20;9.20;;;;;;;8.77;74.31;93768.91;5031966;28;20630;-75
2020/12/10 06:29:47;;;;;;;12.47;8.27;;;;;;;8.52;74.91;93779.94;5032294;28;20598;-76
2020/12/10 06:32:17;;;;;;;16.80;10.40;;;;;;;8.51;74.75;93786.41;5031856;28;20595;-75
2020/12/10 06:34:43;;;;;;;13.37;9.07;;;;;;;8.74;73.70;93770.38;5031982;28;20199;-76
2020/12/10 06:37:19;;;;;;;13.30;9.03;;;;;;;8.69;74.38;93776.00;5032154;28;20713;-75
2020/12/10 06:39:45;;;;;;;17.53;9.27;;;;;;;8.67;74.12;93770.28;5031240;28;20603;-77
2020/12/10 06:42:11;;;;;;;16.43;9.67;;;;;;;8.55;74.91;93792.53;5032141;28;20674;-77
2020/12/10 06:44:37;;;;;;;14.00;9.83;;;;;;;8.27;75.28;93790.19;5031801;28;20613;-76
2020/12/10 06:47:03;;;;;;;15.80;10.13;;;;;;;8.52;74.84;93795.91;5032067;28;20276;-77
2020/12/10 06:49:32;;;;;;;16.43;10.27;;;;;;;8.38;75.82;93795.72;5031554;28;20181;-77
2020/12/10 06:52:10;;;;;;;14.73;9.13;;;;;;;8.61;75.15;93798.34;5031943;28;20180;-76
2020/12/10 06:55:10;;;;;;;22.97;10.40;;;;;;;8.74;74.26;93786.34;5031942;28;20634;-77
2020/12/10 06:58:04;;;;;;;18.30;11.50;;;;;;;8.53;75.26;93796.66;5031416;28;21227;-77
2020/12/10 07:00:38;;;;;;;21.70;12.13;;;;;;;8.65;74.63;93791.94;5031887;28;20594;-77
2020/12/10 07:03:22;;;;;;;23.13;12.10;;;;;;;8.93;73.80;93777.47;5031553;28;20632;-77
2020/12/10 07:05:48;;;;;;;17.73;10.73;;;;;;;8.80;74.13;93778.81;5031471;28;20594;-76
2020/12/10 07:08:16;;;;;;;21.97;12.23;;;;;;;8.65;75.08;93791.19;5031321;28;20990;-77
2020/12/10 07:10:47;;;;;;;15.20;10.63;;;;;;;8.80;75.12;93784.13;5031370;28;20186;-77
2020/12/10 07:13:14;;;;;;;18.80;11.50;;;;;;;8.85;73.77;93783.81;5031447;28;20701;-78
2020/12/10 07:15:40;;;;;;;18.90;11.07;;;;;;;8.71;75.52;93787.84;5031422;28;21016;-77
2020/12/10 07:18:05;;;;;;;19.47;11.50;;;;;;;8.71;75.63;93774.53;5031113;28;20622;-77
2020/12/10 07:20:33;;;;;;;16.77;10.93;;;;;;;8.69;75.54;93768.78;5031676;28;20814;-77
2020/12/10 07:22:59;;;;;;;16.70;10.53;;;;;;;8.80;75.24;93813.41;5030990;28;20221;-77
2020/12/10 07:25:24;;;;;;;21.33;13.03;;;;;;;8.42;76.34;93821.25;5031471;28;20618;-77
2020/12/10 07:27:50;;;;;;;17.97;11.67;;;;;;;8.40;76.29;93790.78;5031327;28;20654;-77
2020/12/10 07:30:17;;;;;;;17.80;10.83;;;;;;;8.78;75.57;93795.16;5031511;28;20271;-77
2020/12/10 07:32:43;;;;;;;20.57;11.40;;;;;;;8.65;75.13;93805.25;5031453;28;20578;-78
2020/12/10 07:35:08;;;;;;;23.80;11.00;;;;;;;8.67;75.43;93799.56;5031427;28;20666;-75
2020/12/10 07:37:34;;;;;;;15.67;10.77;;;;;;;8.89;74.75;93780.09;5031070;28;20179;-76
2020/12/10 07:40:09;;;;;;;15.30;9.57;;;;;;;9.01;74.81;93792.41;5030138;28;20950;-75
2020/12/10 07:42:35;;;;;;;18.33;10.93;;;;;;;9.05;74.56;93811.09;5031143;28;20520;-76
2020/12/10 07:45:17;;;;;;;18.67;11.27;;;;;;;9.09;74.23;93802.03;5031068;28;20592;-75
2020/12/10 07:47:52;;;;;;;19.27;10.80;;;;;;;9.08;74.62;93805.81;5031002;28;20215;-76
2020/12/10 07:50:24;;;;;;;19.70;10.77;;;;;;;9.23;73.85;93785.44;5030423;28;20657;-77
2020/12/10 07:52:50;;;;;;;19.43;11.87;;;;;;;9.05;74.98;93790.56;5035091;28;20581;-77
2020/12/10 07:55:17;;;;;;;23.17;13.13;;;;;;;8.83;76.07;93810.03;5035233;28;20763;-77
2020/12/10 07:57:49;;;;;;;27.43;13.47;;;;;;;8.65;76.94;93820.44;5017556;28;20648;-77
2020/12/10 08:00:19;;;;;;;23.60;12.23;;;;;;;8.94;75.49;93806.41;5017889;28;20639;-77
2020/12/10 08:03:26;;;;;;;22.77;14.23;;;;;;;9.16;74.76;93812.00;5034865;28;20721;-77
2020/12/10 08:06:07;;;;;;;18.40;11.60;;;;;;;8.90;75.50;93796.81;4973918;28;20610;-77
2020/12/10 08:08:39;;;;;;;24.47;13.13;;;;;;;9.09;75.03;93798.59;4974304;28;20604;-78
2020/12/10 08:11:17;;;;;;;22.83;11.67;;;;;;;8.93;75.90;93804.09;4973814;28;20600;-77
2020/12/10 08:13:56;;;;;;;17.00;11.37;;;;;;;8.66;77.07;93820.06;4973958;28;20950;-77
2020/12/10 08:16:21;;;;;;;19.07;11.53;;;;;;;8.92;76.42;93821.19;4973592;28;20728;-77
2020/12/10 08:18:47;;;;;;;16.03;9.73;;;;;;;9.15;75.37;93821.91;4973885;28;20585;-77
2020/12/10 08:21:12;;;;;;;16.83;9.57;;;;;;;9.25;74.66;93826.56;4973588;28;20272;-77
2020/12/10 08:23:45;;;;;;;15.60;9.97;;;;;;;9.25;75.02;93794.59;4973796;28;20182;-77
2020/12/10 08:26:14;;;;;;;20.73;11.27;;;;;;;9.49;75.23;93788.03;4973326;28;20242;-77
2020/12/10 08:28:50;;;;;;;16.57;9.80;;;;;;;10.67;88.83;93812.38;4973524;28;20623;-72
2020/12/10 08:31:19;;;;;;;16.63;9.67;;;;;;;10.04;73.09;93803.44;4973561;28;21003;-77
2020/12/10 08:33:45;;;;;;;13.17;8.97;;;;;;;9.95;73.11;93781.66;4973558;28;20601;-77
2020/12/10 08:36:10;;;;;;;21.53;11.30;;;;;;;9.88;72.84;93808.25;4973271;28;20669;-77
2020/12/10 08:38:38;;;;;;;16.37;9.70;;;;;;;9.41;75.13;93806.97;4973429;28;20181;-77
2020/12/10 08:41:05;;;;;;;20.00;10.53;;;;;;;9.59;73.97;93797.25;4973229;28;20178;-77
2020/12/10 08:43:31;;;;;;;19.47;9.53;;;;;;;9.81;73.33;93806.25;5031959;28;20640;-77
2020/12/10 08:46:00;;;;;;;16.67;9.03;;;;;;;9.73;73.38;93807.31;5034305;28;20587;-77
2020/12/10 08:48:27;;;;;;;18.30;9.87;;;;;;;9.69;73.43;93801.94;5034285;28;20172;-76
2020/12/10 08:50:54;;;;;;;15.20;9.53;;;;;;;9.95;73.26;93782.41;5034286;28;20582;-76
2020/12/10 08:53:20;;;;;;;13.70;8.83;;;;;;;9.76;73.19;93778.06;5033958;28;20993;-76
2020/12/10 08:55:54;;;;;;;17.30;8.60;;;;;;;9.93;73.20;93783.91;5032535;28;20677;-75
2020/12/10 08:58:19;;;;;;;16.20;9.60;;;;;;;9.82;74.38;93794.47;5034950;28;20555;-76
2020/12/10 09:00:47;;;;;;;20.30;9.27;;;;;;;9.78;73.55;93775.78;5035139;28;20582;-77
2020/12/10 09:03:12;;;;;;;17.07;10.60;;;;;;;9.85;72.51;93767.06;5036761;28;20202;-77
2020/12/10 09:05:38;;;;;;;15.67;9.67;;;;;;;9.92;73.43;93777.03;5035150;28;21180;-77
2020/12/10 09:08:03;;;;;;;17.87;9.13;;;;;;;9.88;72.62;93776.25;5033639;28;20222;-78
2020/12/10 09:10:29;;;;;;;12.70;8.53;;;;;;;9.92;74.04;93775.13;5033869;28;20196;-76
2020/12/10 09:12:56;;;;;;;15.77;8.50;;;;;;;10.03;72.52;93761.91;5033707;28;20255;-77
2020/12/10 09:15:22;;;;;;;14.23;9.73;;;;;;;10.10;72.31;93771.84;5032580;28;20630;-76
2020/12/10 09:17:47;;;;;;;14.07;9.60;;;;;;;10.00;71.41;93763.41;5033809;28;20685;-75
2020/12/10 09:20:13;;;;;;;16.43;10.13;;;;;;;9.91;71.81;93748.84;5033702;28;20172;-77
2020/12/10 09:22:38;;;;;;;16.10;9.53;;;;;;;9.99;71.40;93737.88;5033577;28;20219;-76
2020/12/10 09:25:04;;;;;;;15.73;9.47;;;;;;;10.21;72.00;93736.16;5033396;28;20173;-77
2020/12/10 09:27:29;;;;;;;22.50;11.20;;;;;;;10.32;71.67;93739.69;5033335;28;20222;-76
2020/12/10 09:29:55;;;;;;;18.93;10.50;;;;;;;10.21;71.82;93746.81;5033415;28;20175;-76
2020/12/10 09:32:20;;;;;;;19.03;10.00;;;;;;;10.01;72.23;93743.59;5033494;28;20601;-76
2020/12/10 09:34:47;;;;;;;23.80;10.77;;;;;;;10.13;71.66;93739.13;5033199;28;20665;-77
2020/12/10 09:37:13;;;;;;;20.00;10.57;;;;;;;10.14;71.78;93748.66;5033456;28;20215;-76
2020/12/10 09:39:38;;;;;;;23.73;11.20;;;;;;;10.04;73.05;93763.41;5033010;28;20630;-75
2020/12/10 09:42:04;;;;;;;16.53;9.90;;;;;;;10.01;72.53;93764.16;5033424;28;20211;-76
2020/12/10 09:44:31;;;;;;;22.43;10.10;;;;;;;10.06;73.93;93761.16;5033235;28;20177;-77
2020/12/10 09:46:57;;;;;;;20.13;10.83;;;;;;;10.04;73.65;93766.88;5032974;28;21164;-76
2020/12/10 09:49:22;;;;;;;18.60;10.77;;;;;;;11.52;84.72;93772.72;5033192;28;20582;-72
2020/12/10 09:51:53;;;;;;;19.53;10.67;;;;;;;12.19;79.59;93774.03;5032902;28;20173;-72
2020/12/10 09:54:57;;;;;;;19.50;11.33;;;;;;;12.29;75.80;93772.47;5032993;28;20176;-72
2020/12/10 09:57:24;;;;;;;22.80;12.00;;;;;;;12.40;74.09;93759.84;5030655;28;21017;-72
2020/12/10 09:59:50;;;;;;;23.43;11.33;;;;;;;12.76;70.71;93775.91;5032620;28;21198;-73
2020/12/10 10:02:19;;;;;;;21.37;11.63;;;;;;;12.04;66.39;93769.78;5032857;28;20595;-77
2020/12/10 10:04:44;;;;;;;20.83;10.80;;;;;;;11.68;67.71;93759.00;5030771;28;20625;-76
2020/12/10 10:07:10;;;;;;;18.90;11.60;;;;;;;11.51;68.04;93754.41;5031776;28;20591;-77
2020/12/10 10:09:37;;;;;;;23.40;11.33;;;;;;;11.34;68.42;93755.88;5032783;28;20236;-77
2020/12/10 10:12:04;;;;;;;16.13;10.47;;;;;;;11.14;70.05;93760.75;5032628;28;20241;-77
2020/12/10 10:14:31;;;;;;;18.10;9.93;;;;;;;10.73;71.31;93758.25;5031264;28;20593;-77
2020/12/10 10:16:57;;;;;;;20.27;10.00;;;;;;;10.70;71.73;93753.63;5032402;28;21204;-76
2020/12/10 10:19:22;;;;;;;16.90;9.87;;;;;;;10.80;71.95;93738.81;5032429;28;20585;-76
2020/12/10 10:21:48;;;;;;;22.90;11.43;;;;;;;10.80;71.02;93736.91;5032331;28;20626;-77
2020/12/10 10:24:14;;;;;;;23.70;11.63;;;;;;;10.77;72.10;93713.63;5032639;28;20610;-77
2020/12/10 10:26:40;;;;;;;19.10;11.93;;;;;;;10.70;72.43;93716.25;5032262;28;20732;-77
2020/12/10 10:29:08;;;;;;;17.63;10.57;;;;;;;10.53;73.22;93712.34;5014795;28;20168;-77
2020/12/10 10:31:33;;;;;;;16.73;10.57;;;;;;;10.53;72.90;93708.94;5032061;28;20173;-77
2020/12/10 10:33:59;;;;;;;17.87;10.53;;;;;;;10.57;73.76;93710.47;5032213;28;20629;-77
2020/12/10 10:36:24;;;;;;;18.70;10.67;;;;;;;10.45;74.60;93713.47;5032120;28;20231;-77
2020/12/10 10:38:50;;;;;;;22.43;12.17;;;;;;;10.48;73.90;93698.59;5032083;28;20367;-75
2020/12/10 10:41:15;;;;;;;23.13;12.03;;;;;;;10.54;72.78;93713.13;5032209;28;20630;-76
2020/12/10 10:43:41;;;;;;;27.90;13.60;;;;;;;10.61;74.03;93713.19;5032305;28;20164;-76
2020/12/10 10:46:07;;;;;;;24.17;12.67;;;;;;;10.71;73.01;93711.69;5031964;28;20196;-77
2020/12/10 10:48:32;;;;;;;26.83;12.53;;;;;;;10.69;72.89;93705.97;5031827;28;20246;-76
2020/12/10 10:50:58;;;;;;;21.97;11.83;;;;;;;10.70;72.94;93702.91;5031863;28;20611;-77
2020/12/10 10:53:23;;;;;;;27.37;12.73;;;;;;;10.75;73.01;93707.91;5031619;28;20651;-76
2020/12/10 10:55:49;;;;;;;22.63;11.57;;;;;;;10.79;72.21;93713.28;5031900;28;20207;-76
2020/12/10 10:58:15;;;;;;;20.50;12.13;;;;;;;10.74;72.01;93706.38;5031856;28;20223;-76
2020/12/10 11:00:40;;;;;;;22.53;13.30;;;;;;;10.79;72.78;93711.38;5031895;28;20198;-75
2020/12/10 11:03:06;;;;;;;31.70;13.33;;;;;;;10.72;73.36;93711.34;5031960;28;20188;-75
2020/12/10 11:05:31;;;;;;;27.00;12.97;;;;;;;10.78;73.27;93709.84;5031460;28;20667;-75
2020/12/10 11:07:57;;;;;;;23.23;13.57;;;;;;;10.79;72.84;93698.00;5031726;28;20195;-76
2020/12/10 11:10:23;;;;;;;40.87;17.20;;;;;;;10.85;73.86;93709.09;5031571;28;20168;-76
2020/12/10 11:12:51;;;;;;;30.77;14.50;;;;;;;10.78;73.44;93704.50;5031757;28;20172;-75
2020/12/10 11:15:17;;;;;;;33.13;13.60;;;;;;;10.81;73.56;93709.06;5031356;28;20770;-75
2020/12/10 11:17:42;;;;;;;28.87;15.10;;;;;;;10.82;72.81;93704.50;5032090;28;20605;-76
2020/12/10 11:20:08;;;;;;;25.97;13.50;;;;;;;10.81;73.73;93693.06;5031304;28;20208;-76
2020/12/10 11:22:35;;;;;;;23.73;13.03;;;;;;;10.73;73.34;93696.84;5031435;28;20196;-76
2020/12/10 11:25:01;;;;;;;20.93;12.50;;;;;;;10.73;74.59;93691.50;5031297;28;20619;-76
2020/12/10 11:27:30;;;;;;;27.03;13.57;;;;;;;10.70;74.88;93686.13;5031064;28;20635;-76
2020/12/10 11:29:58;;;;;;;27.93;14.30;;;;;;;10.76;74.63;93680.06;5031538;28;20179;-76